METAR UND TAF INFORMATION
ESPA 221620Z 18006KT 160V220 CAVOK 01/M01 Q1014

 FLUGHAFENKARTE

 RUNWAY INFORMATION
Runway 14 Runway length 10990 ft Runway width 148 ft
Runway elevation 65 ft Runway displaced threshold 0 ft Runway heading 137
Runway 32 Runway length 10990 ft Runway width 148 ft
Runway elevation 21 ft Runway displaced threshold 0 ft Runway heading 317

 AIRPORT FREQUENCIES
Type APP Name CON Frequency 125.45 MHZ
Type OPS Name VADER NORT Frequency 122.6 MHZ
Type TWR Name TWR Frequency 128.2 MHZ

 AIRPORT NEAR NAVIGATION AIDS
Type VOR-DME Name Lulea Frequency 115100 KHZ



Aktuelle Version 4.2.1: Changelog

Impressum | Datenschutzerklärung

Powered by Cedric Balogh | Virtual Airlines Manager